Robert Gray Army Air Field Airport
KGRK : now visible

Airfield :











YOU CAN JOIN US ON...

 
LOGIN :

Register | Disclaimer

   EN    FR    IT 

 









Legend :    VFR   Marginal VFR   IFR   Intensive IFR   Very Intensive IFR
Visi :
Ceiling :
>= 8 km
>= 3000ft
5 to 8 km
1000 to 3000 ft
1500m to 5 km
500 to 1000 ft
800 to 1500m
200 to 500 ft
< 800m
< 200 ft
Symbols :   Thunderstorms  Fog  Heavy snow  Heavy precipitations  Wind > 20 kt






- Airport Elevation : 1015 ft
- IATA code : GRK


KGRK - Robert Gray Army Air Field

CURRENT METAR :
  • 161811Z AUTO 04010G15KT 10SM SCT045 30/17 A2991 RMK AO2 SLPNO

EXPIRED METARs :
  • 161801Z AUTO 03008KT 10SM BKN044 29/17 A2991 RMK AO2 SLPNO
  • 161756Z AUTO 09008KT 10SM SCT042 29/17 A2991 RMK AO2 SLPNO T02880173 10303 20193 58011
  • 161751Z AUTO 04004KT 10SM SCT042 30/17 A2991 RMK AO2 SLPNO
  • 161656Z AUTO 07006KT 10SM FEW036 28/18 A2994 RMK AO2 SLPNO T02800178
  • 161556Z AUTO 04007KT 10SM CLR 28/18 A2995 RMK AO2 SLPNO T02750182

TAF TAF KGRK
Valid from the 16 at 16:00 until the 17 at 22:00 UTC


161600Z 1616/1722 03006KT 9999 SKC QNH2992INS
BECMG 1713/1714 25009KT 9999 SKC QNH2997INS TX32/1622Z TN20/1712Z
KZHU FIR / North America



MET'MAP, your aeronautical weather chart ! - Copyright ORBIFLY December 2007 - Disclaimer

ORBIFLY MET'MAP TEAM :

Programming & Development : Alexandra Zaïnal
Concept & original design : Baudouin d'Aumeries
Assistance for programming : Marc-Olivier Méhu
Technical & hardware support : Manuel Goepfert

Contact : metmap@orbifly.com




SOURCES & CREDITS :

   NOAA       Earth
Advisory